sensor_id;sensor_type;location;lat;lon;timestamp;temperature;humidity
2757;DHT22;1386;50.862;6.494;2024-03-22T00:00:36;11.20;99.90
2757;DHT22;1386;50.862;6.494;2024-03-22T00:03:04;11.20;99.90
2757;DHT22;1386;50.862;6.494;2024-03-22T00:05:31;11.20;99.90
2757;DHT22;1386;50.862;6.494;2024-03-22T00:07:57;11.20;99.90
2757;DHT22;1386;50.862;6.494;2024-03-22T00:10:24;11.20;99.90
2757;DHT22;1386;50.862;6.494;2024-03-22T00:12:50;11.20;99.90
2757;DHT22;1386;50.862;6.494;2024-03-22T00:15:17;11.20;99.90
2757;DHT22;1386;50.862;6.494;2024-03-22T00:17:44;11.20;99.90
2757;DHT22;1386;50.862;6.494;2024-03-22T00:20:12;11.20;99.90
2757;DHT22;1386;50.862;6.494;2024-03-22T00:22:38;11.30;99.90
2757;DHT22;1386;50.862;6.494;2024-03-22T00:25:06;11.30;99.90
2757;DHT22;1386;50.862;6.494;2024-03-22T00:27:32;11.30;99.90
2757;DHT22;1386;50.862;6.494;2024-03-22T00:29:59;11.30;99.90
2757;DHT22;1386;50.862;6.494;2024-03-22T00:32:25;11.30;99.90
2757;DHT22;1386;50.862;6.494;2024-03-22T00:34:52;11.30;99.90
2757;DHT22;1386;50.862;6.494;2024-03-22T00:37:20;11.30;99.90
2757;DHT22;1386;50.862;6.494;2024-03-22T00:39:47;11.30;99.90
2757;DHT22;1386;50.862;6.494;2024-03-22T00:42:13;11.30;99.90
2757;DHT22;1386;50.862;6.494;2024-03-22T00:44:40;11.30;99.90
2757;DHT22;1386;50.862;6.494;2024-03-22T00:47:06;11.30;99.90
2757;DHT22;1386;50.862;6.494;2024-03-22T00:49:33;11.30;99.90
2757;DHT22;1386;50.862;6.494;2024-03-22T00:52:00;11.30;99.90
2757;DHT22;1386;50.862;6.494;2024-03-22T00:54:28;11.30;99.90
2757;DHT22;1386;50.862;6.494;2024-03-22T00:56:54;11.30;99.90
2757;DHT22;1386;50.862;6.494;2024-03-22T00:59:21;11.30;99.90
2757;DHT22;1386;50.862;6.494;2024-03-22T01:01:50;11.30;99.90
2757;DHT22;1386;50.862;6.494;2024-03-22T01:04:18;11.40;99.90
2757;DHT22;1386;50.862;6.494;2024-03-22T01:06:43;11.40;99.90
2757;DHT22;1386;50.862;6.494;2024-03-22T01:09:11;11.40;99.90
2757;DHT22;1386;50.862;6.494;2024-03-22T01:11:38;11.40;99.90
2757;DHT22;1386;50.862;6.494;2024-03-22T01:14:05;11.40;99.90
2757;DHT22;1386;50.862;6.494;2024-03-22T01:16:45;11.50;99.90
2757;DHT22;1386;50.862;6.494;2024-03-22T01:19:26;11.40;99.90
2757;DHT22;1386;50.862;6.494;2024-03-22T01:21:52;11.50;99.90
2757;DHT22;1386;50.862;6.494;2024-03-22T01:24:19;11.50;99.90
2757;DHT22;1386;50.862;6.494;2024-03-22T01:26:47;11.50;99.90
2757;DHT22;1386;50.862;6.494;2024-03-22T10:52:39;14.90;99.90
2757;DHT22;1386;50.862;6.494;2024-03-22T10:55:10;14.90;99.90
2757;DHT22;1386;50.862;6.494;2024-03-22T10:57:38;14.90;99.90
2757;DHT22;1386;50.862;6.494;2024-03-22T11:00:08;15.00;99.90
2757;DHT22;1386;50.862;6.494;2024-03-22T11:02:35;14.90;99.90
2757;DHT22;1386;50.862;6.494;2024-03-22T11:05:03;15.00;99.90
2757;DHT22;1386;50.862;6.494;2024-03-22T11:07:29;15.00;99.90
2757;DHT22;1386;50.862;6.494;2024-03-22T11:10:00;15.00;99.90
2757;DHT22;1386;50.862;6.494;2024-03-22T11:12:27;15.00;99.90
2757;DHT22;1386;50.862;6.494;2024-03-22T11:14:59;15.10;99.90
2757;DHT22;1386;50.862;6.494;2024-03-22T11:17:43;15.10;99.90
2757;DHT22;1386;50.862;6.494;2024-03-22T11:20:22;15.10;99.90
2757;DHT22;1386;50.862;6.494;2024-03-22T11:22:53;15.10;99.90
2757;DHT22;1386;50.862;6.494;2024-03-22T11:25:27;15.10;99.90
2757;DHT22;1386;50.862;6.494;2024-03-22T11:27:53;15.10;99.90
2757;DHT22;1386;50.862;6.494;2024-03-22T11:30:21;15.10;99.90
2757;DHT22;1386;50.862;6.494;2024-03-22T11:32:48;15.00;99.90
2757;DHT22;1386;50.862;6.494;2024-03-22T11:35:14;15.00;99.90
2757;DHT22;1386;50.862;6.494;2024-03-22T11:37:41;14.90;99.90
2757;DHT22;1386;50.862;6.494;2024-03-22T11:40:09;14.90;99.90
2757;DHT22;1386;50.862;6.494;2024-03-22T11:42:38;15.00;99.90
2757;DHT22;1386;50.862;6.494;2024-03-22T11:45:09;15.00;99.90
2757;DHT22;1386;50.862;6.494;2024-03-22T11:47:36;14.90;99.90
2757;DHT22;1386;50.862;6.494;2024-03-22T11:50:04;14.90;99.90
2757;DHT22;1386;50.862;6.494;2024-03-22T11:52:30;15.00;99.90
2757;DHT22;1386;50.862;6.494;2024-03-22T11:54:57;15.00;99.90
2757;DHT22;1386;50.862;6.494;2024-03-22T11:57:23;14.90;99.90
2757;DHT22;1386;50.862;6.494;2024-03-22T11:59:59;14.90;99.90
2757;DHT22;1386;50.862;6.494;2024-03-22T12:02:24;14.90;99.90
2757;DHT22;1386;50.862;6.494;2024-03-22T12:04:51;15.00;99.90
2757;DHT22;1386;50.862;6.494;2024-03-22T12:07:18;14.90;99.90
2757;DHT22;1386;50.862;6.494;2024-03-22T12:09:45;14.90;99.90
2757;DHT22;1386;50.862;6.494;2024-03-22T12:12:12;15.00;99.90
2757;DHT22;1386;50.862;6.494;2024-03-22T12:14:39;14.90;99.90
2757;DHT22;1386;50.862;6.494;2024-03-22T12:17:07;15.00;99.90
2757;DHT22;1386;50.862;6.494;2024-03-22T12:19:34;15.00;99.90
2757;DHT22;1386;50.862;6.494;2024-03-22T12:22:01;15.00;99.90
2757;DHT22;1386;50.862;6.494;2024-03-22T12:24:28;15.00;99.90
2757;DHT22;1386;50.862;6.494;2024-03-22T12:26:54;15.00;99.90
2757;DHT22;1386;50.862;6.494;2024-03-22T12:29:21;15.00;99.90
2757;DHT22;1386;50.862;6.494;2024-03-22T12:31:47;15.00;99.90
2757;DHT22;1386;50.862;6.494;2024-03-22T12:34:16;15.00;99.90
2757;DHT22;1386;50.862;6.494;2024-03-22T12:36:43;15.00;99.90
2757;DHT22;1386;50.862;6.494;2024-03-22T12:39:10;15.00;99.90
2757;DHT22;1386;50.862;6.494;2024-03-22T12:41:36;15.00;99.90
2757;DHT22;1386;50.862;6.494;2024-03-22T12:44:03;15.00;99.90
2757;DHT22;1386;50.862;6.494;2024-03-22T12:46:29;15.10;99.90
2757;DHT22;1386;50.862;6.494;2024-03-22T12:48:56;15.10;99.90
2757;DHT22;1386;50.862;6.494;2024-03-22T12:51:24;15.20;99.90
2757;DHT22;1386;50.862;6.494;2024-03-22T12:53:51;15.20;99.90
2757;DHT22;1386;50.862;6.494;2024-03-22T12:56:18;15.20;99.90
2757;DHT22;1386;50.862;6.494;2024-03-22T14:47:37;15.80;99.90
2757;DHT22;1386;50.862;6.494;2024-03-22T14:50:05;15.70;99.90
2757;DHT22;1386;50.862;6.494;2024-03-22T14:52:33;15.70;99.90
2757;DHT22;1386;50.862;6.494;2024-03-22T14:55:00;15.60;99.90
2757;DHT22;1386;50.862;6.494;2024-03-22T14:57:25;15.60;99.90
2757;DHT22;1386;50.862;6.494;2024-03-22T17:12:00;13.10;99.90
2757;DHT22;1386;50.862;6.494;2024-03-22T17:14:28;13.10;99.90
2757;DHT22;1386;50.862;6.494;2024-03-22T17:16:55;13.10;99.90
2757;DHT22;1386;50.862;6.494;2024-03-22T17:19:23;13.00;99.90
2757;DHT22;1386;50.862;6.494;2024-03-22T17:21:49;12.90;99.90
2757;DHT22;1386;50.862;6.494;2024-03-22T17:24:16;12.90;99.90
2757;DHT22;1386;50.862;6.494;2024-03-22T17:26:43;12.90;99.90
2757;DHT22;1386;50.862;6.494;2024-03-22T19:07:34;12.50;99.90
2757;DHT22;1386;50.862;6.494;2024-03-22T19:10:02;12.40;99.90
2757;DHT22;1386;50.862;6.494;2024-03-22T19:12:28;12.30;99.90
2757;DHT22;1386;50.862;6.494;2024-03-22T19:14:55;12.20;99.90
2757;DHT22;1386;50.862;6.494;2024-03-22T19:17:21;12.20;99.90
2757;DHT22;1386;50.862;6.494;2024-03-22T19:19:48;12.10;99.90
2757;DHT22;1386;50.862;6.494;2024-03-22T19:22:15;12.10;99.90
2757;DHT22;1386;50.862;6.494;2024-03-22T19:24:42;12.10;99.90
2757;DHT22;1386;50.862;6.494;2024-03-22T19:27:09;12.10;99.90
2757;DHT22;1386;50.862;6.494;2024-03-22T19:29:35;12.00;99.90
2757;DHT22;1386;50.862;6.494;2024-03-22T19:32:03;12.00;99.90
2757;DHT22;1386;50.862;6.494;2024-03-22T19:34:29;11.90;99.90
2757;DHT22;1386;50.862;6.494;2024-03-22T19:36:57;11.90;99.90
2757;DHT22;1386;50.862;6.494;2024-03-22T19:39:23;11.90;99.90
2757;DHT22;1386;50.862;6.494;2024-03-22T19:41:52;11.80;99.90
2757;DHT22;1386;50.862;6.494;2024-03-22T19:44:18;11.80;99.90
2757;DHT22;1386;50.862;6.494;2024-03-22T19:46:46;11.80;99.90
2757;DHT22;1386;50.862;6.494;2024-03-22T19:49:12;11.80;99.90
2757;DHT22;1386;50.862;6.494;2024-03-22T19:51:39;11.80;99.90
2757;DHT22;1386;50.862;6.494;2024-03-22T19:54:05;11.80;99.90
2757;DHT22;1386;50.862;6.494;2024-03-22T19:56:32;11.80;99.90
2757;DHT22;1386;50.862;6.494;2024-03-22T19:59:00;11.80;99.90
2757;DHT22;1386;50.862;6.494;2024-03-22T20:01:27;11.80;99.90
2757;DHT22;1386;50.862;6.494;2024-03-22T20:03:53;11.70;99.90
2757;DHT22;1386;50.862;6.494;2024-03-22T20:06:20;11.70;99.90
2757;DHT22;1386;50.862;6.494;2024-03-22T20:08:46;11.70;99.90
2757;DHT22;1386;50.862;6.494;2024-03-22T20:11:13;11.70;99.90
2757;DHT22;1386;50.862;6.494;2024-03-22T20:13:39;11.70;99.90
2757;DHT22;1386;50.862;6.494;2024-03-22T20:16:07;11.70;99.90
2757;DHT22;1386;50.862;6.494;2024-03-22T20:18:33;11.60;99.90
2757;DHT22;1386;50.862;6.494;2024-03-22T20:21:00;11.60;99.90
2757;DHT22;1386;50.862;6.494;2024-03-22T20:23:26;11.60;99.90
2757;DHT22;1386;50.862;6.494;2024-03-22T20:25:53;11.60;99.90
2757;DHT22;1386;50.862;6.494;2024-03-22T20:28:20;11.60;99.90
2757;DHT22;1386;50.862;6.494;2024-03-22T20:30:47;11.60;99.90
2757;DHT22;1386;50.862;6.494;2024-03-22T20:33:15;11.60;99.90
2757;DHT22;1386;50.862;6.494;2024-03-22T20:35:42;11.60;99.90
2757;DHT22;1386;50.862;6.494;2024-03-22T20:38:08;11.60;99.90
